Benton, KY

4:07 AM CDT on July 27, 2017 (GMT -0500)
Jason's House | | Change Station
Active Advisory: Special Statement

Elev 456 ft 36.85 °N, 88.35 °W | Updated 12 seconds ago

Clear
Clear
79.0 °F
Feels Like 83 °F
N
1.0
Wind Variable Wind from SSE
Gusts 2.0 mph

Today
High -- | Low -- °F
--% Chance of Precip.
Yesterday
High -- | Low -- °F
Precip. -- in
Pressure 29.99 in
Visibility 10.0 miles
Clouds Clear
Heat Index 83 °F
Dew Point 75 °F
Humidity 88%
Rainfall 0.00 in
Snow Depth Not available.
5:55 AM 8:04 PM
Waxing Crescent, 19% visible
METAR KCEY 270855Z AUTO 22007KT 10SM CLR 25/25 A2999 RMK AO1
Pressure 29.99 in
Visibility 10.0 miles
Clouds Clear
Heat Index 83 °F
Dew Point 75 °F
Humidity 88%
Rainfall 0.00 in
Snow Depth Not available.
5:55 AM 8:04 PM
Waxing Crescent, 19% visible
METAR KCEY 270855Z AUTO 22007KT 10SM CLR 25/25 A2999 RMK AO1

Get Your Daily Forecast Email!

Thanks for signing up!

Be on the lookout for a verification email in your inbox.

You'll start receiving severe weather alerts in your inbox..

×

10-Day Weather Forecast

Almanac

Astronomy

Jul. 27, 2017 Rise Set
Actual Time
Civil Twilight
Nautical Twilight
Astronomical Twilight
Moon
Length of Visible Light
Length of Day
Tomorrow will be .
, % of the Moon is Illuminated

Today's Extremes

State Highs State Lows

Community

WunderPhotos

Category 6

Welcome to Category 6. This is the collective home for Weather Underground's featured writeups by Dr. Jeff Masters (right), Bob Henson (left), Chris Burt, and other regular contributors.

Nearby

Air Quality

  Air Quality AQ Index Pollutant
Not available.

Snow Depth

Station Depth Elevation

Earthquake Activity

City Distance Mag. Time & Date
Minimum magnitude displayed is 2.5.

Coastal Water Temperatures

Place Temperature

Stations

Nearby Weather Stations

Station Location Temp. Windchill Dew Point Humidity Wind Precip. Elev Updated Type
                   

Watches & Warnings

Special Statement
Issued: 3:49 AM CDT Jul. 27, 2017 – National Weather Service

... Hot and humid today...

Maximum afternoon heat index values will range from 100 to 105
degrees.

These conditions will increase the likelihood of heat related
illness if precautions are not taken when working or participating
in activities outside. Thunderstorms may develop by afternoon,
providing some relief.

Cooler and drier air will begin to filter into the region Friday.



349 am CDT Thu Jul 27 2017

... Hot and humid today...

Maximum afternoon heat index values will range from 100 to 105
degrees.

These conditions will increase the likelihood of heat related
illness if precautions are not taken when working or participating
in activities outside. Thunderstorms may develop by afternoon,
providing some relief.

Cooler and drier air will begin to filter into the region Friday.